Time;durP1;ratioP1;P1;durP2;ratioP2;P2;SDS_P1;SDS_P2;PMS_P1;PMS_P2;Temp;Humidity;BMP_temperature;BMP_pressure;BME280_temperature;BME280_humidity;BME280_pressure;Samples;Min_cycle;Max_cycle;Signal;HPM_P1;HPM_P2
2022/01/15 00:00:39;;;;;;;5.37;1.43;;;1.60;99.90;0.60;100803;;;;597465;238;24119;-82
2022/01/15 00:03:08;;;;;;;6.40;1.80;;;1.60;99.90;0.60;100811;;;;596837;235;24090;-79
2022/01/15 00:05:32;;;;;;;5.20;0.90;;;1.60;99.90;0.50;100805;;;;597135;240;24060;-81
2022/01/15 00:08:00;;;;;;;5.97;1.63;;;1.60;99.90;0.50;100804;;;;597600;238;24062;-81
2022/01/15 00:10:29;;;;;;;1.17;1.00;;;1.60;99.90;0.50;100807;;;;596986;235;24060;-82
2022/01/15 00:12:56;;;;;;;2.90;1.70;;;1.50;99.90;0.50;100805;;;;597127;238;24030;-82
2022/01/15 00:15:36;;;;;;;1.80;1.63;;;1.50;99.90;0.40;100807;;;;597362;240;24065;-81
2022/01/15 00:18:05;;;;;;;2.33;1.37;;;1.50;99.90;0.40;100797;;;;598499;239;24093;-80
2022/01/15 00:20:28;;;;;;;1.77;1.67;;;1.50;99.90;0.40;100804;;;;598403;235;24036;-81
2022/01/15 00:22:56;;;;;;;11.33;2.00;;;1.40;99.90;0.40;100800;;;;598221;238;24060;-81
2022/01/15 00:25:27;;;;;;;1.80;1.13;;;1.40;99.90;0.30;100788;;;;597580;240;24077;-81
2022/01/15 00:27:52;;;;;;;3.80;2.13;;;1.40;99.90;0.30;100784;;;;597553;240;24050;-82
2022/01/15 00:30:20;;;;;;;3.87;1.30;;;1.40;99.90;0.30;100791;;;;597720;238;24089;-81
2022/01/15 00:32:51;;;;;;;1.37;0.83;;;1.30;99.90;0.30;100793;;;;598000;238;24080;-82
2022/01/15 00:35:16;;;;;;;4.93;1.63;;;1.30;99.90;0.30;100792;;;;597143;235;24069;-81
2022/01/15 00:37:44;;;;;;;0.83;0.77;;;1.30;99.90;0.30;100786;;;;597748;238;24077;-81
2022/01/15 00:40:12;;;;;;;8.70;2.30;;;1.30;99.90;0.30;100777;;;;591973;238;34936;-81
2022/01/15 00:42:43;;;;;;;4.60;2.10;;;1.30;99.90;0.30;100790;;;;592424;235;34950;-80
2022/01/15 00:45:11;;;;;;;3.70;1.20;;;1.30;99.90;0.20;100787;;;;596861;240;24061;-82
2022/01/15 00:47:35;;;;;;;2.33;0.83;;;1.30;99.90;0.20;100786;;;;597210;235;25142;-82
2022/01/15 00:50:03;;;;;;;3.80;1.40;;;1.30;99.90;0.30;100794;;;;597352;236;24119;-81
2022/01/15 00:52:32;;;;;;;2.43;0.77;;;1.30;99.90;0.30;100792;;;;597252;238;24073;-82
2022/01/15 00:55:00;;;;;;;1.23;1.17;;;1.30;99.90;0.30;100799;;;;597524;238;24131;-81
2022/01/15 00:57:28;;;;;;;7.43;1.23;;;1.30;99.90;0.20;100799;;;;596882;238;24063;-80
2022/01/15 00:59:56;;;;;;;4.00;1.00;;;1.30;99.90;0.20;100800;;;;597492;238;24147;-81
2022/01/15 01:02:23;;;;;;;0.70;0.50;;;1.30;99.90;0.20;100808;;;;596995;235;24054;-80
2022/01/15 01:04:51;;;;;;;3.57;0.87;;;1.20;99.90;0.20;100808;;;;597516;238;24042;-80
2022/01/15 01:07:19;;;;;;;6.07;1.10;;;1.20;99.90;0.10;100802;;;;597137;238;24060;-81
2022/01/15 01:23:10;;;;;;;3.10;0.93;;;1.00;99.90;-0.10;100802;;;;588269;235;24031;-82
2022/01/15 01:25:43;;;;;;;2.67;0.80;;;0.90;99.90;-0.10;100797;;;;597543;238;24047;-81
2022/01/15 01:28:12;;;;;;;1.23;0.87;;;0.90;99.90;-0.10;100799;;;;597575;238;24067;-81
2022/01/15 01:35:49;;;;;;;2.77;1.07;;;0.90;99.90;-0.10;100800;;;;582283;240;24030;-81
2022/01/15 01:38:22;;;;;;;5.93;0.90;;;0.90;99.90;-0.10;100794;;;;597312;240;24074;-80
2022/01/15 01:40:44;;;;;;;0.80;0.70;;;0.90;99.90;-0.20;100789;;;;597424;240;24082;-81
2022/01/15 01:43:39;;;;;;;2.33;1.10;;;0.90;99.90;-0.20;100793;;;;597498;240;24111;-81
2022/01/15 01:45:37;;;;;;;1.83;0.90;;;0.90;99.90;-0.20;100796;;;;595948;240;24026;-80
2022/01/15 01:48:08;;;;;;;1.10;1.00;;;0.80;99.90;-0.30;100797;;;;597882;238;24117;-81
2022/01/15 01:50:32;;;;;;;5.17;1.70;;;0.80;99.90;-0.30;100783;;;;597442;240;24033;-82
2022/01/15 01:53:00;;;;;;;6.10;1.27;;;0.80;99.90;-0.40;100787;;;;597806;238;24045;-80
2022/01/15 01:55:31;;;;;;;1.87;1.43;;;0.70;99.90;-0.40;100788;;;;597783;238;24114;-80
2022/01/15 01:57:57;;;;;;;5.18;1.80;;;0.60;99.90;-0.40;100781;;;;592173;240;45814;-82
2022/01/15 02:00:25;;;;;;;6.67;1.47;;;0.60;99.90;-0.50;100785;;;;597771;238;24049;-81
2022/01/15 02:02:52;;;;;;;0.80;0.80;;;0.60;99.90;-0.50;100782;;;;597157;240;24068;-81
2022/01/15 02:05:23;;;;;;;1.97;0.77;;;0.60;99.90;-0.60;100777;;;;597150;235;24081;-81
2022/01/15 02:07:48;;;;;;;4.37;0.73;;;0.50;99.90;-0.60;100784;;;;596749;235;24050;-81
2022/01/15 02:10:17;;;;;;;0.83;0.83;;;0.50;99.90;-0.60;100779;;;;597238;238;24058;-81
2022/01/15 02:12:45;;;;;;;2.43;1.37;;;0.50;99.90;-0.60;100781;;;;596943;235;24051;-82
2022/01/15 02:15:13;;;;;;;8.40;1.07;;;0.50;99.90;-0.60;100780;;;;597511;235;27262;-81
2022/01/15 02:17:41;;;;;;;3.33;0.90;;;0.50;99.90;-0.60;100768;;;;595366;240;24035;-82
2022/01/15 02:25:52;;;;;;;1.03;0.93;;;0.50;99.90;-0.60;100758;;;;597575;240;24061;-80
2022/01/15 02:28:20;;;;;;;0.70;0.70;;;0.50;99.90;-0.60;100763;;;;597525;238;24034;-82
2022/01/15 02:30:47;;;;;;;3.33;1.00;;;0.40;99.90;-0.70;100777;;;;597445;238;24058;-80
2022/01/15 02:33:15;;;;;;;1.43;1.33;;;0.40;99.90;-0.70;100779;;;;597223;240;24087;-80
2022/01/15 02:35:43;;;;;;;2.63;1.07;;;0.40;99.90;-0.70;100789;;;;597545;238;24077;-81
2022/01/15 02:38:15;;;;;;;0.50;0.50;;;0.40;99.90;-0.70;100783;;;;597589;238;24088;-81
2022/01/15 02:40:43;;;;;;;1.80;0.80;;;0.40;99.90;-0.70;100787;;;;598673;238;24142;-81
2022/01/15 02:43:07;;;;;;;1.47;0.50;;;0.40;99.90;-0.70;100790;;;;598445;240;24045;-80
2022/01/15 02:45:36;;;;;;;13.30;1.17;;;0.40;99.90;-0.70;100790;;;;598050;240;24034;-81
2022/01/15 02:48:07;;;;;;;3.33;0.50;;;0.40;99.90;-0.70;100793;;;;598350;238;24060;-81
2022/01/15 02:50:35;;;;;;;8.40;0.73;;;0.40;99.90;-0.70;100791;;;;597181;240;24063;-81
2022/01/15 02:53:02;;;;;;;0.70;0.70;;;0.40;99.90;-0.70;100786;;;;597556;235;24046;-81
2022/01/15 02:55:30;;;;;;;3.70;1.53;;;0.40;99.90;-0.70;100791;;;;597783;235;24051;-81
2022/01/15 02:57:58;;;;;;;2.53;1.27;;;0.40;99.90;-0.70;100783;;;;597551;238;24047;-81
2022/01/15 03:00:25;;;;;;;2.50;0.90;;;0.40;99.90;-0.70;100781;;;;597573;238;24077;-81
2022/01/15 03:02:53;;;;;;;3.20;0.93;;;0.40;99.90;-0.80;100786;;;;597796;236;24046;-82
2022/01/15 03:05:25;;;;;;;8.40;1.47;;;0.40;99.90;-0.80;100787;;;;597840;238;24050;-81
2022/01/15 03:07:49;;;;;;;2.57;0.80;;;0.30;99.90;-0.80;100783;;;;597270;235;24041;-81
2022/01/15 03:10:17;;;;;;;8.63;1.67;;;0.30;99.90;-0.90;100790;;;;597802;238;24042;-82
2022/01/15 03:12:48;;;;;;;4.22;1.42;;;0.20;99.90;-0.80;100784;;;;592766;235;34970;-81
2022/01/15 03:15:19;;;;;;;6.82;2.60;;;0.30;99.90;-0.80;100786;;;;591781;240;34884;-79
2022/01/15 03:17:41;;;;;;;6.43;1.73;;;0.30;99.90;-0.80;100781;;;;596580;240;24077;-80
2022/01/15 03:20:12;;;;;;;8.23;1.70;;;0.30;99.90;-0.80;100776;;;;597148;238;24062;-82
2022/01/15 03:22:37;;;;;;;2.13;0.83;;;0.40;99.90;-0.70;100784;;;;597180;235;24048;-81
2022/01/15 03:25:05;;;;;;;1.90;0.67;;;0.40;99.90;-0.80;100786;;;;597576;238;24086;-80
2022/01/15 03:27:36;;;;;;;2.90;0.90;;;0.30;99.90;-0.80;100782;;;;597543;238;24049;-80
2022/01/15 03:30:02;;;;;;;0.30;0.30;;;0.30;99.90;-0.80;100793;;;;597342;240;24040;-82
2022/01/15 03:32:30;;;;;;;3.67;0.60;;;0.30;99.90;-0.80;100791;;;;597602;235;24043;-81
2022/01/15 03:35:00;;;;;;;1.60;1.07;;;0.30;99.90;-0.80;100791;;;;597504;238;24041;-80
2022/01/15 03:37:29;;;;;;;1.40;0.87;;;0.30;99.90;-0.90;100797;;;;597082;235;24030;-80
2022/01/15 03:39:53;;;;;;;2.90;0.83;;;0.20;99.90;-0.90;100798;;;;596466;240;24034;-82
2022/01/15 03:42:24;;;;;;;1.03;0.70;;;0.20;99.90;-0.90;100805;;;;597140;238;24078;-81
2022/01/15 03:44:50;;;;;;;2.37;0.80;;;0.20;99.90;-0.90;100803;;;;596636;240;24031;-81
2022/01/15 03:47:18;;;;;;;1.57;1.47;;;0.20;99.90;-0.90;100810;;;;597070;238;24049;-81
2022/01/15 03:49:45;;;;;;;3.00;0.70;;;0.20;99.90;-0.90;100815;;;;597051;235;24066;-82
2022/01/15 03:52:13;;;;;;;0.53;0.53;;;0.20;99.90;-1.00;100818;;;;598617;238;24069;-82
2022/01/15 03:54:41;;;;;;;8.33;0.90;;;0.20;99.90;-1.00;100819;;;;598280;235;24033;-81
2022/01/15 03:57:09;;;;;;;6.53;0.80;;;0.10;99.90;-1.00;100824;;;;597875;238;24051;-82
2022/01/15 03:59:37;;;;;;;1.37;0.80;;;0.10;99.90;-1.00;100831;;;;597962;238;24081;-82
2022/01/15 04:02:09;;;;;;;1.67;0.73;;;0.10;99.90;-1.00;100832;;;;597619;238;24123;-81
2022/01/15 04:04:33;;;;;;;1.43;0.80;;;0.10;99.90;-1.00;100833;;;;597223;240;24059;-81
2022/01/15 04:07:01;;;;;;;0.93;0.50;;;0.10;99.90;-1.10;100832;;;;597654;238;24057;-80
2022/01/15 04:09:29;;;;;;;1.40;1.07;;;0.10;99.90;-1.10;100839;;;;597408;235;24113;-81
2022/01/15 04:11:56;;;;;;;2.57;0.80;;;0.00;99.90;-1.10;100843;;;;597448;238;24038;-80
2022/01/15 04:14:24;;;;;;;2.53;1.23;;;0.00;99.90;-1.20;100844;;;;597314;238;24081;-80
2022/01/15 04:16:52;;;;;;;3.73;0.87;;;0.00;99.90;-1.20;100835;;;;597462;238;24030;-79
2022/01/15 04:19:21;;;;;;;4.67;1.67;;;0.00;99.90;-1.20;100837;;;;597283;238;24089;-81
2022/01/15 04:21:48;;;;;;;1.67;1.10;;;-0.10;99.90;-1.30;100845;;;;597401;238;24059;-80
2022/01/15 04:24:20;;;;;;;5.23;1.80;;;-0.20;99.90;-1.30;100850;;;;597776;238;24059;-81
2022/01/15 04:26:44;;;;;;;1.40;1.10;;;-0.20;99.90;-1.40;100854;;;;597718;235;24053;-81
2022/01/15 04:29:14;;;;;;;11.43;1.30;;;-0.20;99.90;-1.40;100855;;;;597286;238;24065;-81
2022/01/15 04:31:47;;;;;;;1.40;1.07;;;-0.20;99.90;-1.40;100852;;;;597030;235;24038;-80
2022/01/15 04:34:24;;;;;;;6.03;1.13;;;-0.30;99.90;-1.50;100859;;;;597385;240;24039;-81
2022/01/15 04:36:51;;;;;;;2.67;1.00;;;-0.30;99.90;-1.40;100860;;;;597232;240;24041;-80
2022/01/15 04:39:18;;;;;;;2.70;1.43;;;-0.30;99.90;-1.40;100868;;;;597491;235;24108;-81
2022/01/15 04:41:50;;;;;;;4.40;1.30;;;-0.30;99.90;-1.50;100884;;;;597076;235;24099;-80
2022/01/15 04:44:14;;;;;;;3.43;1.50;;;-0.30;99.90;-1.50;100874;;;;597103;240;24039;-81
2022/01/15 04:46:42;;;;;;;6.20;1.80;;;-0.30;99.90;-1.60;100879;;;;597221;238;24045;-82
2022/01/15 04:49:10;;;;;;;3.03;1.70;;;-0.40;99.90;-1.60;100868;;;;586841;240;24127;-81
2022/01/15 04:51:38;;;;;;;2.03;1.90;;;-0.40;99.90;-1.60;100874;;;;587000;240;24076;-81
2022/01/15 04:54:06;;;;;;;9.60;2.30;;;-0.40;99.90;-1.70;100865;;;;585492;240;24028;-80
2022/01/15 04:56:33;;;;;;;6.03;2.20;;;-0.50;99.90;-1.70;100858;;;;587031;240;24025;-81
2022/01/15 04:59:06;;;;;;;3.17;1.30;;;-0.50;99.90;-1.70;100870;;;;586950;240;24026;-81
2022/01/15 05:01:30;;;;;;;6.27;1.67;;;-0.60;99.90;-1.80;100866;;;;584906;240;24059;-80
2022/01/15 05:03:58;;;;;;;6.80;1.80;;;-0.60;99.90;-1.80;100868;;;;587338;240;24042;-80
2022/01/15 05:06:26;;;;;;;3.50;1.70;;;-0.60;99.90;-1.80;100878;;;;587981;240;24078;-80
2022/01/15 05:09:03;;;;;;;6.20;1.53;;;-0.70;99.90;-1.90;100888;;;;587793;240;24094;-81
2022/01/15 05:11:43;;;;;;;8.53;1.90;;;-0.60;99.90;-2.00;100886;;;;586741;240;26248;-81
2022/01/15 05:13:50;;;;;;;6.97;1.70;;;-0.70;99.90;-2.00;100888;;;;585684;240;24101;-80
2022/01/15 05:16:18;;;;;;;3.13;1.77;;;-0.80;99.90;-2.00;100882;;;;587532;240;24110;-80
2022/01/15 05:18:49;;;;;;;5.23;1.60;;;-0.80;99.90;-2.10;100871;;;;587313;240;24018;-80
2022/01/15 05:21:13;;;;;;;6.80;2.47;;;-0.90;99.90;-2.10;100883;;;;586729;240;24031;-79
2022/01/15 05:23:41;;;;;;;5.33;2.43;;;-0.90;99.90;-2.10;100875;;;;586180;240;24099;-79
2022/01/15 05:26:13;;;;;;;9.33;3.33;;;-0.90;99.90;-2.10;100871;;;;587340;240;24025;-81
2022/01/15 05:28:37;;;;;;;6.90;3.30;;;-0.90;99.90;-2.00;100879;;;;586609;240;24065;-80
2022/01/15 05:31:06;;;;;;;8.53;3.20;;;-0.90;99.90;-2.00;100876;;;;587124;240;24076;-81
2022/01/15 05:33:35;;;;;;;7.20;3.20;;;-0.80;99.90;-2.00;100877;;;;587208;240;24007;-81
2022/01/15 05:36:03;;;;;;;10.93;2.53;;;-0.80;99.90;-2.00;100886;;;;587022;240;24019;-81
2022/01/15 05:38:33;;;;;;;7.30;2.57;;;-0.80;99.90;-1.90;100878;;;;587028;240;24045;-80
2022/01/15 05:40:58;;;;;;;11.00;2.80;;;-0.80;99.90;-1.90;100891;;;;586613;240;24082;-81
2022/01/15 05:43:27;;;;;;;3.23;2.40;;;-0.80;99.90;-1.90;100888;;;;585739;240;24006;-80
2022/01/15 05:45:54;;;;;;;8.87;2.53;;;-0.70;99.90;-1.90;100881;;;;586607;240;24048;-81
2022/01/15 05:48:22;;;;;;;4.23;2.00;;;-0.70;99.90;-1.80;100891;;;;586699;240;24061;-79
2022/01/15 05:50:50;;;;;;;1.50;1.10;;;-0.70;99.90;-1.80;100895;;;;586889;240;24024;-81
2022/01/15 05:53:18;;;;;;;7.53;1.67;;;-0.60;99.90;-1.80;100889;;;;586716;240;24056;-80
2022/01/15 05:55:46;;;;;;;7.73;2.80;;;-0.60;99.90;-1.80;100891;;;;586833;240;24075;-81
2022/01/15 05:58:14;;;;;;;2.30;1.03;;;-0.60;99.90;-1.80;100897;;;;586792;240;24034;-80
2022/01/15 06:00:42;;;;;;;6.90;1.60;;;-0.60;99.90;-1.70;100905;;;;586814;240;24052;-79
2022/01/15 06:03:10;;;;;;;4.87;1.10;;;-0.60;99.90;-1.70;100913;;;;587185;240;24024;-80
2022/01/15 06:05:37;;;;;;;2.20;1.10;;;-0.60;99.90;-1.70;100908;;;;587135;240;23999;-80
2022/01/15 06:08:05;;;;;;;4.07;1.77;;;-0.50;99.90;-1.70;100915;;;;586828;240;24024;-79
2022/01/15 06:10:34;;;;;;;9.55;2.25;;;-0.50;99.90;-1.70;100915;;;;581633;240;34920;-80
2022/01/15 06:13:01;;;;;;;6.97;2.03;;;-0.50;99.90;-1.70;100921;;;;587092;240;24093;-80
2022/01/15 06:15:29;;;;;;;5.73;1.53;;;-0.50;99.90;-1.70;100924;;;;597417;235;24164;-81
2022/01/15 06:17:58;;;;;;;2.03;1.30;;;-0.50;99.90;-1.70;100923;;;;587813;240;24073;-80
2022/01/15 06:20:27;;;;;;;4.97;1.23;;;-0.50;99.90;-1.70;100917;;;;587583;240;24056;-81
2022/01/15 06:22:54;;;;;;;4.37;1.50;;;-0.50;99.90;-1.70;100910;;;;587909;240;24185;-81
2022/01/15 06:25:22;;;;;;;6.73;2.70;;;-0.50;99.90;-1.70;100905;;;;587691;240;24096;-80
2022/01/15 06:27:54;;;;;;;3.27;1.20;;;-0.50;99.90;-1.70;100895;;;;596908;238;24032;-82
2022/01/15 06:30:18;;;;;;;5.93;1.63;;;-0.50;99.90;-1.70;100909;;;;587070;240;25082;-80
2022/01/15 06:32:46;;;;;;;5.63;1.50;;;-0.50;99.90;-1.70;100927;;;;587722;240;24056;-82
2022/01/15 06:35:17;;;;;;;5.67;2.13;;;-0.60;99.90;-1.70;100921;;;;585987;240;24118;-80
2022/01/15 06:37:42;;;;;;;7.40;2.33;;;-0.50;99.90;-1.70;100939;;;;586994;240;24025;-81
2022/01/15 06:40:10;;;;;;;6.90;2.10;;;-0.60;99.90;-1.70;100923;;;;587482;240;24081;-82
2022/01/15 06:42:38;;;;;;;4.60;1.97;;;-0.50;99.90;-1.70;100933;;;;587534;240;24029;-81
2022/01/15 06:45:06;;;;;;;11.57;1.70;;;-0.60;99.90;-1.70;100933;;;;587796;240;24078;-81
2022/01/15 06:47:37;;;;;;;9.63;3.13;;;-0.60;99.90;-1.70;100923;;;;587780;238;24055;-81
2022/01/15 06:50:04;;;;;;;7.73;2.80;;;-0.50;99.90;-1.70;100925;;;;582351;240;24040;-80
2022/01/15 06:52:30;;;;;;;4.23;1.63;;;-0.50;99.90;-1.80;100933;;;;587139;240;24063;-81
2022/01/15 06:54:58;;;;;;;8.90;2.90;;;-0.60;99.90;-1.70;100939;;;;585760;240;24049;-81
2022/01/15 06:57:27;;;;;;;6.57;2.23;;;-0.60;99.90;-1.80;100927;;;;587054;240;24022;-80
2022/01/15 06:59:55;;;;;;;2.17;2.00;;;-0.70;99.90;-1.80;100936;;;;587069;240;24019;-81
2022/01/15 07:02:23;;;;;;;4.90;2.07;;;-0.70;99.90;-1.80;100932;;;;586689;240;24099;-80
2022/01/15 07:04:51;;;;;;;5.47;2.10;;;-0.60;99.90;-1.80;100936;;;;585288;240;24032;-82
2022/01/15 07:07:19;;;;;;;5.00;2.23;;;-0.60;99.90;-1.70;100944;;;;586759;240;24079;-81
2022/01/15 07:09:47;;;;;;;4.03;2.63;;;-0.60;99.90;-1.80;100935;;;;586643;240;24118;-81
2022/01/15 07:12:15;;;;;;;9.00;2.10;;;-0.60;99.90;-1.70;100932;;;;587167;240;24058;-81
2022/01/15 07:14:43;;;;;;;5.50;1.53;;;-0.60;99.90;-1.80;100936;;;;586838;240;24343;-82
2022/01/15 07:17:11;;;;;;;9.10;2.07;;;-0.60;99.90;-1.80;100932;;;;585366;240;24006;-82
2022/01/15 07:19:42;;;;;;;5.03;2.27;;;-0.60;99.90;-1.80;100944;;;;586907;240;24017;-81
2022/01/15 07:22:07;;;;;;;6.67;1.90;;;-0.60;99.90;-1.80;100946;;;;595415;240;24077;-81
2022/01/15 07:24:38;;;;;;;9.80;3.00;;;-0.60;99.90;-1.70;100955;;;;587056;240;24073;-81
2022/01/15 07:27:04;;;;;;;7.50;3.50;;;-0.60;99.90;-1.70;100956;;;;588259;240;25082;-80
2022/01/15 07:29:36;;;;;;;6.23;2.77;;;-0.60;99.90;-1.70;100956;;;;586915;240;25152;-81
2022/01/15 07:32:01;;;;;;;9.67;3.30;;;-0.50;99.90;-1.70;100970;;;;587580;240;24074;-81
2022/01/15 07:34:29;;;;;;;7.87;3.20;;;-0.60;99.90;-1.60;100965;;;;587923;240;24084;-81
2022/01/15 07:36:59;;;;;;;2.73;1.73;;;-0.50;99.90;-1.60;100970;;;;587709;240;24025;-81
2022/01/15 07:39:27;;;;;;;4.63;2.93;;;-0.50;99.90;-1.60;100967;;;;586250;240;24085;-81
2022/01/15 07:41:56;;;;;;;6.50;2.90;;;-0.40;99.90;-1.50;100971;;;;587716;240;25113;-81
2022/01/15 07:44:23;;;;;;;6.77;3.10;;;-0.40;99.90;-1.50;100973;;;;587480;240;24017;-81
2022/01/15 07:46:51;;;;;;;3.20;1.97;;;-0.40;99.90;-1.40;100963;;;;582416;238;24051;-81
2022/01/15 07:49:19;;;;;;;5.87;2.60;;;-0.30;99.90;-1.40;100970;;;;587521;240;24059;-80
2022/01/15 07:51:47;;;;;;;3.60;1.37;;;-0.30;99.90;-1.30;100971;;;;587474;240;24044;-82
2022/01/15 07:54:15;;;;;;;5.80;2.17;;;-0.20;99.90;-1.20;100966;;;;587467;240;24039;-82
2022/01/15 07:56:42;;;;;;;4.27;2.20;;;-0.20;99.90;-1.20;100962;;;;587448;240;24038;-82
2022/01/15 07:59:10;;;;;;;13.10;2.57;;;-0.10;99.90;-1.10;100958;;;;587443;240;24104;-82
2022/01/15 08:01:38;;;;;;;7.77;3.07;;;-0.10;99.90;-1.10;100964;;;;587188;240;24026;-81
2022/01/15 08:04:06;;;;;;;7.27;2.47;;;0.00;99.90;-1.10;100972;;;;586707;240;24049;-81
2022/01/15 08:06:34;;;;;;;3.47;2.20;;;0.10;99.90;-1.00;100967;;;;586886;240;24021;-81
2022/01/15 08:09:02;;;;;;;5.67;2.37;;;0.10;99.90;-1.00;100969;;;;586873;235;24057;-81
2022/01/15 08:11:30;;;;;;;5.83;1.87;;;0.10;99.90;-1.00;100973;;;;587152;240;24058;-81
2022/01/15 08:14:02;;;;;;;9.60;2.63;;;0.20;99.90;-0.90;100982;;;;587123;237;24089;-80
2022/01/15 08:16:27;;;;;;;4.80;2.13;;;0.20;99.90;-0.90;100989;;;;595935;240;24025;-81
2022/01/15 08:18:54;;;;;;;3.13;1.93;;;0.20;99.90;-0.80;100986;;;;584251;240;24030;-81
2022/01/15 08:21:22;;;;;;;4.63;2.07;;;0.30;99.90;-0.80;100989;;;;596339;238;24153;-81
2022/01/15 08:23:51;;;;;;;5.87;2.57;;;0.30;99.90;-0.80;100987;;;;587128;240;24080;-81
2022/01/15 08:26:19;;;;;;;8.17;2.83;;;0.30;99.90;-0.70;100983;;;;586811;237;24051;-81
2022/01/15 08:28:47;;;;;;;8.23;1.60;;;0.40;99.90;-0.70;100976;;;;585508;240;24058;-81
2022/01/15 08:31:15;;;;;;;6.57;1.67;;;0.40;99.90;-0.60;100978;;;;586842;240;24065;-81
2022/01/15 08:33:43;;;;;;;3.03;1.73;;;0.50;99.90;-0.60;100988;;;;586608;240;24073;-78
2022/01/15 08:36:11;;;;;;;4.03;2.37;;;0.50;99.90;-0.50;100995;;;;586920;240;24108;-81
2022/01/15 08:38:39;;;;;;;3.70;2.50;;;0.60;99.90;-0.40;100997;;;;588154;240;24016;-81
2022/01/15 08:41:07;;;;;;;4.80;1.40;;;0.60;99.90;-0.40;100998;;;;597231;238;24066;-81
2022/01/15 08:43:35;;;;;;;5.60;1.93;;;0.70;99.90;-0.30;101004;;;;586204;240;24033;-81
2022/01/15 08:46:03;;;;;;;6.63;2.53;;;0.70;99.90;-0.30;101019;;;;587395;240;24052;-81
2022/01/15 08:48:32;;;;;;;5.97;1.57;;;0.80;99.90;-0.20;101014;;;;585996;240;24046;-81
2022/01/15 08:50:59;;;;;;;4.47;1.63;;;0.80;99.90;-0.20;101021;;;;587270;240;24054;-82
2022/01/15 08:53:27;;;;;;;16.77;2.23;;;0.90;99.90;-0.10;101034;;;;587564;240;24028;-81
2022/01/15 08:55:59;;;;;;;3.03;1.50;;;0.90;99.90;0.00;101033;;;;587243;240;24033;-82
2022/01/15 08:58:25;;;;;;;3.87;1.80;;;1.10;99.90;0.00;101045;;;;586471;240;24097;-82
2022/01/15 09:00:54;;;;;;;7.70;2.30;;;1.00;99.90;0.10;101032;;;;587012;240;24039;-80
2022/01/15 09:03:20;;;;;;;12.63;2.47;;;1.10;99.90;0.10;101022;;;;586946;240;24023;-80
2022/01/15 09:05:51;;;;;;;3.33;1.97;;;1.20;99.90;0.10;101024;;;;587120;240;24026;-81
2022/01/15 09:08:18;;;;;;;2.03;0.80;;;1.20;99.90;0.20;101028;;;;586533;240;24040;-81
2022/01/15 09:10:43;;;;;;;2.73;1.53;;;1.30;99.90;0.30;101036;;;;586608;240;24067;-82
2022/01/15 09:13:15;;;;;;;3.80;1.67;;;1.30;99.90;0.30;101045;;;;596590;238;24034;-82
2022/01/15 09:15:40;;;;;;;11.80;2.00;;;1.40;99.90;0.40;101055;;;;581910;240;24031;-82
2022/01/15 09:18:08;;;;;;;3.20;1.50;;;1.50;99.90;0.50;101046;;;;587144;240;24051;-82
2022/01/15 09:20:36;;;;;;;3.60;1.57;;;1.50;99.90;0.50;101053;;;;587182;240;24019;-82
2022/01/15 09:23:04;;;;;;;7.70;1.50;;;1.50;99.90;0.60;101052;;;;587142;240;24117;-81
2022/01/15 09:25:32;;;;;;;2.07;1.57;;;1.60;99.90;0.70;101058;;;;587160;240;24010;-82
2022/01/15 09:30:48;;;;;;;0.80;0.70;;;1.70;99.90;0.70;101048;;;;586777;240;24037;-82
2022/01/15 09:33:13;;;;;;;8.63;1.47;;;1.80;99.90;0.80;101042;;;;586722;240;24057;-81
2022/01/15 09:35:41;;;;;;;4.27;1.33;;;1.80;99.90;0.80;101050;;;;593578;239;24128;-80
2022/01/15 09:38:09;;;;;;;7.70;2.67;;;1.80;99.90;0.90;101056;;;;581693;240;24034;-80
2022/01/15 09:40:40;;;;;;;1.60;1.50;;;1.90;99.90;0.90;101067;;;;595985;235;24030;-81
2022/01/15 09:43:05;;;;;;;3.90;2.23;;;1.90;99.90;1.00;101078;;;;586674;240;24064;-81
2022/01/15 09:45:35;;;;;;;9.23;2.92;;;2.00;99.90;1.00;101077;;;;590867;238;45343;-82
2022/01/15 09:48:04;;;;;;;5.37;2.27;;;2.00;99.90;1.10;101079;;;;586660;240;24073;-82
2022/01/15 09:50:29;;;;;;;7.03;2.37;;;2.10;99.90;1.10;101082;;;;583220;240;29384;-81
2022/01/15 09:52:57;;;;;;;6.83;2.43;;;2.10;99.90;1.10;101071;;;;587787;235;24087;-82
2022/01/15 09:55:27;;;;;;;5.53;2.20;;;2.20;99.90;1.20;101070;;;;587635;240;24135;-82
2022/01/15 09:57:53;;;;;;;9.27;1.97;;;2.20;99.90;1.20;101059;;;;594078;240;24044;-82
2022/01/15 10:00:23;;;;;;;1.47;1.37;;;2.30;99.90;1.30;101058;;;;587206;240;24053;-81
2022/01/15 10:02:49;;;;;;;8.17;2.43;;;2.30;99.90;1.40;101066;;;;587341;240;24056;-82
2022/01/15 10:05:16;;;;;;;4.07;1.20;;;2.30;99.90;1.40;101067;;;;587593;240;25107;-81
2022/01/15 10:08:06;;;;;;;6.07;1.70;;;2.40;99.90;1.40;101057;;;;584518;240;24068;-82
2022/01/15 10:10:36;;;;;;;5.13;2.43;;;2.40;99.90;1.50;101064;;;;587796;240;24108;-83
2022/01/15 10:13:22;;;;;;;5.10;2.77;;;2.50;99.90;1.70;101068;;;;595057;240;24153;-82
2022/01/15 10:15:50;;;;;;;5.33;2.00;;;2.70;99.90;1.90;101077;;;;587037;240;24044;-81
2022/01/15 10:18:27;;;;;;;6.17;1.87;;;2.90;99.90;2.20;101068;;;;589259;240;24044;-82
2022/01/15 10:20:55;;;;;;;3.07;1.27;;;3.10;99.90;2.40;101079;;;;586264;240;24325;-82
2022/01/15 10:23:22;;;;;;;1.33;1.23;;;3.30;99.90;2.60;101080;;;;586944;240;24045;-81
2022/01/15 10:26:18;;;;;;;5.43;1.87;;;3.50;99.90;2.70;101072;;;;583764;240;24040;-82
2022/01/15 10:29:04;;;;;;;9.67;1.83;;;3.70;99.90;2.90;101084;;;;593749;240;24032;-82
2022/01/15 10:31:32;;;;;;;2.73;1.80;;;3.90;99.90;3.00;101093;;;;593820;239;24115;-81
2022/01/15 10:34:00;;;;;;;5.63;1.83;;;4.00;99.90;3.10;101085;;;;587129;240;24035;-82
2022/01/15 10:36:30;;;;;;;4.80;1.50;;;4.10;99.90;3.20;101081;;;;587049;240;24045;-81
2022/01/15 10:39:16;;;;;;;3.37;1.50;;;4.10;99.90;3.20;101066;;;;587106;240;24061;-81
2022/01/15 10:41:44;;;;;;;5.93;1.60;;;4.20;99.90;3.20;101064;;;;594058;239;24045;-81
2022/01/15 10:44:37;;;;;;;1.50;0.80;;;4.20;99.90;3.20;101061;;;;596422;238;24025;-81
2022/01/15 10:47:01;;;;;;;8.33;1.97;;;4.20;99.90;3.20;101069;;;;593622;240;24094;-81
2022/01/15 10:49:29;;;;;;;5.30;2.03;;;4.20;99.90;3.20;101078;;;;583601;240;24091;-80
2022/01/15 10:52:09;;;;;;;5.50;1.93;;;4.20;99.90;3.20;101079;;;;594165;239;24117;-81
2022/01/15 10:55:00;;;;;;;2.87;2.10;;;4.20;99.90;3.30;101081;;;;587315;240;24040;-81
2022/01/15 10:57:24;;;;;;;7.30;1.60;;;4.20;99.90;3.30;101079;;;;587265;240;24036;-80
2022/01/15 11:00:11;;;;;;;3.80;2.70;;;4.30;99.90;3.30;101077;;;;587408;238;24039;-81
2022/01/15 11:02:44;;;;;;;3.60;1.57;;;4.40;99.90;3.40;101091;;;;595047;240;24107;-82
2022/01/15 11:05:20;;;;;;;7.97;1.70;;;4.40;99.90;3.50;101089;;;;584872;240;24044;-81
2022/01/15 11:07:52;;;;;;;6.73;1.83;;;4.40;99.90;3.50;101096;;;;587825;240;24042;-82
2022/01/15 11:10:20;;;;;;;4.20;1.83;;;4.50;99.90;3.50;101095;;;;587597;240;24082;-81
2022/01/15 11:12:48;;;;;;;6.73;1.60;;;4.50;99.90;3.50;101076;;;;582379;240;24034;-82
2022/01/15 11:15:13;;;;;;;5.33;2.00;;;4.40;99.90;3.40;101082;;;;587652;240;24064;-81
2022/01/15 11:17:41;;;;;;;2.93;1.70;;;4.40;99.90;3.20;101090;;;;588003;240;24059;-82
2022/01/15 11:20:09;;;;;;;6.07;1.37;;;4.20;99.90;3.10;101087;;;;594473;239;24057;-81
2022/01/15 11:22:36;;;;;;;7.43;1.77;;;4.10;99.90;3.00;101084;;;;587596;240;24081;-81
2022/01/15 11:25:09;;;;;;;1.70;1.13;;;3.90;99.90;2.90;101102;;;;587562;240;24086;-82
2022/01/15 11:27:34;;;;;;;3.50;1.10;;;3.80;99.90;2.80;101100;;;;587738;240;24184;-81
2022/01/15 11:30:04;;;;;;;2.47;1.70;;;3.80;99.90;2.70;101107;;;;587264;240;24049;-80
2022/01/15 11:32:29;;;;;;;7.20;3.93;;;3.70;99.90;2.70;101102;;;;583862;240;24075;-82
2022/01/15 11:35:09;;;;;;;5.30;2.60;;;3.70;99.90;2.70;101105;;;;594607;239;24047;-80
2022/01/15 11:37:47;;;;;;;3.73;1.80;;;3.70;99.90;2.70;101104;;;;587168;240;24080;-81
2022/01/15 11:40:25;;;;;;;6.43;1.97;;;3.70;99.90;2.80;101101;;;;584275;240;24041;-82
2022/01/15 11:42:53;;;;;;;0.80;0.80;;;3.70;99.90;2.70;101102;;;;593703;235;24085;-81
2022/01/15 11:45:36;;;;;;;4.60;2.03;;;3.70;99.90;2.60;101092;;;;587404;240;24029;-81
2022/01/15 11:48:20;;;;;;;3.93;1.23;;;3.60;99.90;2.60;101099;;;;587359;240;24357;-82
2022/01/15 11:50:47;;;;;;;7.30;1.83;;;3.60;99.90;2.50;101101;;;;593828;240;24067;-82